sensor_id;sensor_type;location;lat;lon;timestamp;P1;durP1;ratioP1;P2;durP2;ratioP2
3589;SDS011;1809;48.470;9.226;2023-04-25T00:02:24;4.90;;;3.37;;
3589;SDS011;1809;48.470;9.226;2023-04-25T00:04:49;2.90;;;2.57;;
3589;SDS011;1809;48.470;9.226;2023-04-25T00:07:15;2.50;;;2.30;;
3589;SDS011;1809;48.470;9.226;2023-04-25T00:09:41;3.13;;;2.63;;
3589;SDS011;1809;48.470;9.226;2023-04-25T00:12:06;3.57;;;2.43;;
3589;SDS011;1809;48.470;9.226;2023-04-25T00:14:32;4.17;;;2.90;;
3589;SDS011;1809;48.470;9.226;2023-04-25T00:17:00;3.27;;;2.73;;
3589;SDS011;1809;48.470;9.226;2023-04-25T00:19:26;2.70;;;2.50;;
3589;SDS011;1809;48.470;9.226;2023-04-25T00:21:53;3.50;;;2.50;;
3589;SDS011;1809;48.470;9.226;2023-04-25T00:24:21;2.83;;;2.37;;
3589;SDS011;1809;48.470;9.226;2023-04-25T00:26:47;2.40;;;2.20;;
3589;SDS011;1809;48.470;9.226;2023-04-25T00:29:12;2.83;;;2.37;;
3589;SDS011;1809;48.470;9.226;2023-04-25T00:31:37;3.10;;;2.70;;
3589;SDS011;1809;48.470;9.226;2023-04-25T00:34:03;5.33;;;3.03;;
3589;SDS011;1809;48.470;9.226;2023-04-25T00:36:28;4.00;;;2.77;;
3589;SDS011;1809;48.470;9.226;2023-04-25T00:38:53;2.90;;;2.70;;
3589;SDS011;1809;48.470;9.226;2023-04-25T00:41:20;3.50;;;3.20;;
3589;SDS011;1809;48.470;9.226;2023-04-25T00:43:45;4.63;;;2.63;;
3589;SDS011;1809;48.470;9.226;2023-04-25T00:46:13;2.97;;;2.70;;
3589;SDS011;1809;48.470;9.226;2023-04-25T00:48:38;3.20;;;2.80;;
3589;SDS011;1809;48.470;9.226;2023-04-25T00:51:03;3.83;;;3.17;;
3589;SDS011;1809;48.470;9.226;2023-04-25T00:53:30;4.47;;;2.83;;
3589;SDS011;1809;48.470;9.226;2023-04-25T00:55:57;3.83;;;2.97;;
3589;SDS011;1809;48.470;9.226;2023-04-25T00:58:22;5.80;;;3.60;;
3589;SDS011;1809;48.470;9.226;2023-04-25T01:00:48;5.93;;;3.30;;
3589;SDS011;1809;48.470;9.226;2023-04-25T01:03:16;3.63;;;3.20;;
3589;SDS011;1809;48.470;9.226;2023-04-25T01:05:44;4.50;;;3.00;;
3589;SDS011;1809;48.470;9.226;2023-04-25T01:08:10;4.93;;;3.60;;
3589;SDS011;1809;48.470;9.226;2023-04-25T01:10:36;6.43;;;3.60;;
3589;SDS011;1809;48.470;9.226;2023-04-25T01:13:02;9.20;;;6.03;;
3589;SDS011;1809;48.470;9.226;2023-04-25T01:15:27;9.97;;;4.40;;
3589;SDS011;1809;48.470;9.226;2023-04-25T01:17:53;4.13;;;3.73;;
3589;SDS011;1809;48.470;9.226;2023-04-25T01:20:21;4.87;;;3.10;;
3589;SDS011;1809;48.470;9.226;2023-04-25T01:22:48;3.53;;;2.93;;
3589;SDS011;1809;48.470;9.226;2023-04-25T01:25:14;5.50;;;3.03;;
3589;SDS011;1809;48.470;9.226;2023-04-25T01:27:39;5.43;;;2.37;;
3589;SDS011;1809;48.470;9.226;2023-04-25T01:30:05;13.60;;;5.40;;
3589;SDS011;1809;48.470;9.226;2023-04-25T01:32:31;2.80;;;2.70;;
3589;SDS011;1809;48.470;9.226;2023-04-25T01:35:04;3.20;;;2.90;;
3589;SDS011;1809;48.470;9.226;2023-04-25T01:37:34;5.30;;;3.00;;
3589;SDS011;1809;48.470;9.226;2023-04-25T01:40:03;5.70;;;3.93;;
3589;SDS011;1809;48.470;9.226;2023-04-25T01:42:30;3.37;;;3.07;;
3589;SDS011;1809;48.470;9.226;2023-04-25T01:44:56;7.50;;;3.43;;
3589;SDS011;1809;48.470;9.226;2023-04-25T01:47:22;4.60;;;2.70;;
3589;SDS011;1809;48.470;9.226;2023-04-25T01:49:47;3.80;;;3.03;;
3589;SDS011;1809;48.470;9.226;2023-04-25T01:52:13;2.80;;;2.60;;
3589;SDS011;1809;48.470;9.226;2023-04-25T01:54:38;3.00;;;2.80;;
3589;SDS011;1809;48.470;9.226;2023-04-25T01:57:08;3.40;;;2.90;;
3589;SDS011;1809;48.470;9.226;2023-04-25T01:59:34;5.73;;;3.70;;
3589;SDS011;1809;48.470;9.226;2023-04-25T02:02:00;3.37;;;3.17;;
3589;SDS011;1809;48.470;9.226;2023-04-25T02:04:28;4.07;;;3.13;;
3589;SDS011;1809;48.470;9.226;2023-04-25T02:06:54;7.77;;;3.60;;
3589;SDS011;1809;48.470;9.226;2023-04-25T02:09:19;2.83;;;2.63;;
3589;SDS011;1809;48.470;9.226;2023-04-25T02:11:45;3.63;;;3.23;;
3589;SDS011;1809;48.470;9.226;2023-04-25T02:14:10;3.57;;;2.30;;
3589;SDS011;1809;48.470;9.226;2023-04-25T02:16:35;2.40;;;2.20;;
3589;SDS011;1809;48.470;9.226;2023-04-25T02:19:01;3.33;;;2.47;;
3589;SDS011;1809;48.470;9.226;2023-04-25T02:21:26;4.73;;;3.20;;
3589;SDS011;1809;48.470;9.226;2023-04-25T02:23:52;3.70;;;3.00;;
3589;SDS011;1809;48.470;9.226;2023-04-25T02:26:17;3.13;;;2.67;;
3589;SDS011;1809;48.470;9.226;2023-04-25T02:28:42;2.90;;;2.80;;
3589;SDS011;1809;48.470;9.226;2023-04-25T02:31:08;4.07;;;3.13;;
3589;SDS011;1809;48.470;9.226;2023-04-25T02:33:33;3.47;;;2.50;;
3589;SDS011;1809;48.470;9.226;2023-04-25T02:35:59;3.17;;;2.93;;
3589;SDS011;1809;48.470;9.226;2023-04-25T02:38:24;2.33;;;2.07;;
3589;SDS011;1809;48.470;9.226;2023-04-25T02:40:50;5.90;;;3.10;;
3589;SDS011;1809;48.470;9.226;2023-04-25T02:43:15;5.23;;;2.80;;
3589;SDS011;1809;48.470;9.226;2023-04-25T02:45:41;3.37;;;3.10;;
3589;SDS011;1809;48.470;9.226;2023-04-25T02:48:06;6.30;;;2.60;;
3589;SDS011;1809;48.470;9.226;2023-04-25T02:50:31;2.90;;;2.50;;
3589;SDS011;1809;48.470;9.226;2023-04-25T02:52:57;2.63;;;2.53;;
3589;SDS011;1809;48.470;9.226;2023-04-25T02:55:22;3.50;;;2.70;;
3589;SDS011;1809;48.470;9.226;2023-04-25T02:57:48;3.90;;;2.50;;
3589;SDS011;1809;48.470;9.226;2023-04-25T03:00:13;2.87;;;2.67;;
3589;SDS011;1809;48.470;9.226;2023-04-25T03:02:39;2.50;;;2.30;;
3589;SDS011;1809;48.470;9.226;2023-04-25T03:05:04;6.10;;;2.47;;
3589;SDS011;1809;48.470;9.226;2023-04-25T03:07:30;6.87;;;2.97;;
3589;SDS011;1809;48.470;9.226;2023-04-25T03:09:56;5.20;;;2.80;;
3589;SDS011;1809;48.470;9.226;2023-04-25T03:12:21;3.50;;;2.43;;
3589;SDS011;1809;48.470;9.226;2023-04-25T03:14:47;2.90;;;2.23;;
3589;SDS011;1809;48.470;9.226;2023-04-25T03:17:12;3.13;;;2.80;;
3589;SDS011;1809;48.470;9.226;2023-04-25T03:19:37;3.50;;;2.73;;
3589;SDS011;1809;48.470;9.226;2023-04-25T03:22:03;7.30;;;3.60;;
3589;SDS011;1809;48.470;9.226;2023-04-25T03:24:28;2.23;;;2.10;;
3589;SDS011;1809;48.470;9.226;2023-04-25T03:26:53;2.50;;;2.37;;
3589;SDS011;1809;48.470;9.226;2023-04-25T03:29:19;7.33;;;2.53;;
3589;SDS011;1809;48.470;9.226;2023-04-25T03:31:49;4.20;;;2.30;;
3589;SDS011;1809;48.470;9.226;2023-04-25T03:34:14;2.83;;;2.63;;
3589;SDS011;1809;48.470;9.226;2023-04-25T03:36:40;2.80;;;2.10;;
3589;SDS011;1809;48.470;9.226;2023-04-25T03:39:05;6.07;;;2.03;;
3589;SDS011;1809;48.470;9.226;2023-04-25T03:41:31;2.47;;;2.27;;
3589;SDS011;1809;48.470;9.226;2023-04-25T03:43:56;5.10;;;3.03;;
3589;SDS011;1809;48.470;9.226;2023-04-25T03:46:21;7.13;;;4.23;;
3589;SDS011;1809;48.470;9.226;2023-04-25T03:48:47;4.83;;;3.93;;
3589;SDS011;1809;48.470;9.226;2023-04-25T03:51:12;4.27;;;3.50;;
3589;SDS011;1809;48.470;9.226;2023-04-25T03:53:37;4.47;;;3.57;;
3589;SDS011;1809;48.470;9.226;2023-04-25T03:56:03;6.13;;;4.00;;
3589;SDS011;1809;48.470;9.226;2023-04-25T03:58:28;12.87;;;5.00;;
3589;SDS011;1809;48.470;9.226;2023-04-25T04:00:54;11.50;;;3.90;;
3589;SDS011;1809;48.470;9.226;2023-04-25T04:03:19;4.67;;;3.90;;
3589;SDS011;1809;48.470;9.226;2023-04-25T04:05:45;6.50;;;3.60;;
3589;SDS011;1809;48.470;9.226;2023-04-25T04:08:11;4.13;;;3.23;;
3589;SDS011;1809;48.470;9.226;2023-04-25T04:10:36;3.00;;;2.80;;
3589;SDS011;1809;48.470;9.226;2023-04-25T04:13:02;5.73;;;3.63;;
3589;SDS011;1809;48.470;9.226;2023-04-25T04:15:27;5.13;;;3.60;;
3589;SDS011;1809;48.470;9.226;2023-04-25T04:17:53;7.73;;;3.40;;
3589;SDS011;1809;48.470;9.226;2023-04-25T04:20:19;4.20;;;3.43;;
3589;SDS011;1809;48.470;9.226;2023-04-25T04:22:44;7.90;;;4.47;;
3589;SDS011;1809;48.470;9.226;2023-04-25T04:25:09;7.20;;;3.13;;
3589;SDS011;1809;48.470;9.226;2023-04-25T04:27:36;5.20;;;3.50;;
3589;SDS011;1809;48.470;9.226;2023-04-25T04:30:02;6.53;;;3.53;;
3589;SDS011;1809;48.470;9.226;2023-04-25T04:32:29;3.10;;;2.60;;
3589;SDS011;1809;48.470;9.226;2023-04-25T04:34:55;8.60;;;3.77;;
3589;SDS011;1809;48.470;9.226;2023-04-25T04:37:21;3.73;;;2.87;;
3589;SDS011;1809;48.470;9.226;2023-04-25T04:39:46;3.80;;;3.23;;
3589;SDS011;1809;48.470;9.226;2023-04-25T04:42:12;8.47;;;3.57;;
3589;SDS011;1809;48.470;9.226;2023-04-25T04:44:38;3.10;;;2.80;;
3589;SDS011;1809;48.470;9.226;2023-04-25T04:47:04;2.67;;;2.47;;
3589;SDS011;1809;48.470;9.226;2023-04-25T04:49:31;2.30;;;2.10;;
3589;SDS011;1809;48.470;9.226;2023-04-25T04:51:57;5.73;;;2.50;;
3589;SDS011;1809;48.470;9.226;2023-04-25T04:54:22;5.00;;;3.50;;
3589;SDS011;1809;48.470;9.226;2023-04-25T04:56:47;2.30;;;2.20;;
3589;SDS011;1809;48.470;9.226;2023-04-25T04:59:13;3.90;;;2.90;;
3589;SDS011;1809;48.470;9.226;2023-04-25T05:01:38;3.30;;;2.50;;
3589;SDS011;1809;48.470;9.226;2023-04-25T05:04:03;4.80;;;2.90;;
3589;SDS011;1809;48.470;9.226;2023-04-25T05:06:30;4.97;;;2.63;;
3589;SDS011;1809;48.470;9.226;2023-04-25T05:08:56;5.00;;;3.20;;
3589;SDS011;1809;48.470;9.226;2023-04-25T05:11:22;6.10;;;3.70;;
3589;SDS011;1809;48.470;9.226;2023-04-25T05:13:48;4.67;;;2.53;;
3589;SDS011;1809;48.470;9.226;2023-04-25T05:16:15;6.07;;;2.50;;
3589;SDS011;1809;48.470;9.226;2023-04-25T05:18:40;5.37;;;3.33;;
3589;SDS011;1809;48.470;9.226;2023-04-25T05:21:05;2.70;;;2.30;;
3589;SDS011;1809;48.470;9.226;2023-04-25T05:23:32;7.20;;;2.53;;
3589;SDS011;1809;48.470;9.226;2023-04-25T05:25:57;3.63;;;2.27;;
3589;SDS011;1809;48.470;9.226;2023-04-25T05:28:23;3.63;;;2.43;;
3589;SDS011;1809;48.470;9.226;2023-04-25T05:30:48;2.70;;;2.50;;
3589;SDS011;1809;48.470;9.226;2023-04-25T05:33:14;3.10;;;2.50;;
3589;SDS011;1809;48.470;9.226;2023-04-25T05:35:40;2.93;;;2.70;;
3589;SDS011;1809;48.470;9.226;2023-04-25T05:38:05;5.40;;;2.40;;
3589;SDS011;1809;48.470;9.226;2023-04-25T05:40:31;3.07;;;2.53;;
3589;SDS011;1809;48.470;9.226;2023-04-25T05:42:57;5.30;;;2.67;;
3589;SDS011;1809;48.470;9.226;2023-04-25T05:45:22;3.77;;;3.47;;
3589;SDS011;1809;48.470;9.226;2023-04-25T05:47:48;2.30;;;2.20;;
3589;SDS011;1809;48.470;9.226;2023-04-25T05:50:13;2.93;;;2.67;;
3589;SDS011;1809;48.470;9.226;2023-04-25T05:52:38;3.00;;;2.70;;
3589;SDS011;1809;48.470;9.226;2023-04-25T05:55:04;2.93;;;2.47;;
3589;SDS011;1809;48.470;9.226;2023-04-25T05:57:30;6.23;;;2.27;;
3589;SDS011;1809;48.470;9.226;2023-04-25T05:59:56;1.77;;;1.67;;
3589;SDS011;1809;48.470;9.226;2023-04-25T06:02:21;2.33;;;2.17;;
3589;SDS011;1809;48.470;9.226;2023-04-25T06:04:47;2.00;;;1.80;;
3589;SDS011;1809;48.470;9.226;2023-04-25T06:07:14;8.47;;;2.90;;
3589;SDS011;1809;48.470;9.226;2023-04-25T06:09:39;2.20;;;2.10;;
3589;SDS011;1809;48.470;9.226;2023-04-25T06:12:05;3.20;;;2.20;;
3589;SDS011;1809;48.470;9.226;2023-04-25T06:14:31;3.63;;;2.40;;
3589;SDS011;1809;48.470;9.226;2023-04-25T06:16:57;2.13;;;1.93;;
3589;SDS011;1809;48.470;9.226;2023-04-25T06:19:22;2.77;;;2.50;;
3589;SDS011;1809;48.470;9.226;2023-04-25T06:21:48;2.67;;;2.20;;
3589;SDS011;1809;48.470;9.226;2023-04-25T06:24:13;4.83;;;2.57;;
3589;SDS011;1809;48.470;9.226;2023-04-25T06:26:39;3.23;;;2.33;;
3589;SDS011;1809;48.470;9.226;2023-04-25T06:29:04;4.87;;;2.80;;
3589;SDS011;1809;48.470;9.226;2023-04-25T06:31:29;2.90;;;2.03;;
3589;SDS011;1809;48.470;9.226;2023-04-25T06:33:57;3.40;;;1.97;;
3589;SDS011;1809;48.470;9.226;2023-04-25T06:36:22;3.00;;;2.40;;
3589;SDS011;1809;48.470;9.226;2023-04-25T06:38:50;4.00;;;2.80;;
3589;SDS011;1809;48.470;9.226;2023-04-25T06:41:17;8.83;;;2.27;;
3589;SDS011;1809;48.470;9.226;2023-04-25T06:43:42;8.33;;;2.80;;
3589;SDS011;1809;48.470;9.226;2023-04-25T06:46:08;2.43;;;2.20;;
3589;SDS011;1809;48.470;9.226;2023-04-25T06:48:33;2.40;;;2.30;;
3589;SDS011;1809;48.470;9.226;2023-04-25T06:50:58;2.87;;;2.50;;
3589;SDS011;1809;48.470;9.226;2023-04-25T06:53:24;4.57;;;2.50;;
3589;SDS011;1809;48.470;9.226;2023-04-25T06:55:49;4.50;;;2.10;;
3589;SDS011;1809;48.470;9.226;2023-04-25T06:58:15;3.83;;;1.87;;
3589;SDS011;1809;48.470;9.226;2023-04-25T07:00:40;3.20;;;2.90;;
3589;SDS011;1809;48.470;9.226;2023-04-25T07:03:05;2.63;;;2.43;;
3589;SDS011;1809;48.470;9.226;2023-04-25T07:05:31;5.90;;;3.70;;
3589;SDS011;1809;48.470;9.226;2023-04-25T07:07:56;2.87;;;2.27;;
3589;SDS011;1809;48.470;9.226;2023-04-25T07:10:22;2.43;;;2.33;;
3589;SDS011;1809;48.470;9.226;2023-04-25T07:12:47;3.23;;;2.47;;
3589;SDS011;1809;48.470;9.226;2023-04-25T07:15:13;2.60;;;2.50;;
3589;SDS011;1809;48.470;9.226;2023-04-25T07:17:38;1.93;;;1.83;;
3589;SDS011;1809;48.470;9.226;2023-04-25T07:20:04;2.57;;;2.30;;
3589;SDS011;1809;48.470;9.226;2023-04-25T07:22:31;2.40;;;2.13;;
3589;SDS011;1809;48.470;9.226;2023-04-25T07:24:57;8.23;;;2.50;;
3589;SDS011;1809;48.470;9.226;2023-04-25T07:27:22;2.90;;;2.67;;
3589;SDS011;1809;48.470;9.226;2023-04-25T07:29:47;4.33;;;2.63;;
3589;SDS011;1809;48.470;9.226;2023-04-25T07:32:13;3.77;;;2.80;;
3589;SDS011;1809;48.470;9.226;2023-04-25T07:34:39;3.57;;;2.60;;
3589;SDS011;1809;48.470;9.226;2023-04-25T07:37:04;5.53;;;2.70;;
3589;SDS011;1809;48.470;9.226;2023-04-25T07:39:30;2.50;;;2.30;;
3589;SDS011;1809;48.470;9.226;2023-04-25T07:41:55;4.50;;;2.70;;
3589;SDS011;1809;48.470;9.226;2023-04-25T07:44:23;3.20;;;2.90;;
3589;SDS011;1809;48.470;9.226;2023-04-25T07:46:48;6.53;;;3.70;;
3589;SDS011;1809;48.470;9.226;2023-04-25T07:49:14;10.20;;;2.47;;
3589;SDS011;1809;48.470;9.226;2023-04-25T07:51:40;2.67;;;2.47;;
3589;SDS011;1809;48.470;9.226;2023-04-25T07:54:06;14.40;;;3.33;;
3589;SDS011;1809;48.470;9.226;2023-04-25T07:56:31;2.90;;;2.20;;
3589;SDS011;1809;48.470;9.226;2023-04-25T07:58:57;4.30;;;2.77;;
3589;SDS011;1809;48.470;9.226;2023-04-25T08:01:22;2.60;;;2.47;;
3589;SDS011;1809;48.470;9.226;2023-04-25T08:03:48;3.03;;;2.83;;
3589;SDS011;1809;48.470;9.226;2023-04-25T08:06:13;3.93;;;3.20;;
3589;SDS011;1809;48.470;9.226;2023-04-25T08:08:38;3.00;;;2.80;;
3589;SDS011;1809;48.470;9.226;2023-04-25T08:11:04;3.10;;;2.93;;
3589;SDS011;1809;48.470;9.226;2023-04-25T08:13:30;4.00;;;3.13;;
3589;SDS011;1809;48.470;9.226;2023-04-25T08:15:55;3.27;;;2.77;;
3589;SDS011;1809;48.470;9.226;2023-04-25T08:18:20;3.40;;;3.10;;
3589;SDS011;1809;48.470;9.226;2023-04-25T08:20:46;2.83;;;2.63;;
3589;SDS011;1809;48.470;9.226;2023-04-25T08:23:11;2.87;;;2.67;;
3589;SDS011;1809;48.470;9.226;2023-04-25T08:25:37;5.80;;;4.10;;
3589;SDS011;1809;48.470;9.226;2023-04-25T08:28:02;3.43;;;3.03;;
3589;SDS011;1809;48.470;9.226;2023-04-25T08:30:28;4.30;;;3.73;;
3589;SDS011;1809;48.470;9.226;2023-04-25T08:32:54;3.50;;;3.20;;
3589;SDS011;1809;48.470;9.226;2023-04-25T08:35:19;5.67;;;3.40;;
3589;SDS011;1809;48.470;9.226;2023-04-25T08:37:45;3.93;;;3.60;;
3589;SDS011;1809;48.470;9.226;2023-04-25T08:40:11;12.53;;;3.83;;
3589;SDS011;1809;48.470;9.226;2023-04-25T08:42:39;4.57;;;4.20;;
3589;SDS011;1809;48.470;9.226;2023-04-25T08:45:06;5.83;;;5.30;;
3589;SDS011;1809;48.470;9.226;2023-04-25T08:47:33;7.27;;;5.13;;
3589;SDS011;1809;48.470;9.226;2023-04-25T08:49:59;10.60;;;5.07;;
3589;SDS011;1809;48.470;9.226;2023-04-25T08:52:27;7.77;;;4.37;;
3589;SDS011;1809;48.470;9.226;2023-04-25T08:54:57;5.07;;;4.67;;
3589;SDS011;1809;48.470;9.226;2023-04-25T08:57:23;6.30;;;5.60;;
3589;SDS011;1809;48.470;9.226;2023-04-25T08:59:49;5.70;;;5.10;;
3589;SDS011;1809;48.470;9.226;2023-04-25T09:02:14;6.10;;;5.50;;
3589;SDS011;1809;48.470;9.226;2023-04-25T09:04:44;13.40;;;6.50;;
3589;SDS011;1809;48.470;9.226;2023-04-25T09:07:10;9.30;;;4.40;;
3589;SDS011;1809;48.470;9.226;2023-04-25T09:09:35;4.47;;;4.03;;
3589;SDS011;1809;48.470;9.226;2023-04-25T09:12:01;7.60;;;5.13;;
3589;SDS011;1809;48.470;9.226;2023-04-25T09:14:26;9.40;;;5.90;;
3589;SDS011;1809;48.470;9.226;2023-04-25T09:19:21;7.43;;;5.43;;
3589;SDS011;1809;48.470;9.226;2023-04-25T09:21:57;13.80;;;6.40;;
3589;SDS011;1809;48.470;9.226;2023-04-25T09:26:58;8.10;;;6.47;;
3589;SDS011;1809;48.470;9.226;2023-04-25T09:29:31;8.20;;;7.10;;
3589;SDS011;1809;48.470;9.226;2023-04-25T09:32:10;12.47;;;7.47;;
3589;SDS011;1809;48.470;9.226;2023-04-25T09:34:40;7.53;;;5.83;;
3589;SDS011;1809;48.470;9.226;2023-04-25T09:37:08;2.23;;;2.13;;
3589;SDS011;1809;48.470;9.226;2023-04-25T09:39:37;1.43;;;1.33;;
3589;SDS011;1809;48.470;9.226;2023-04-25T09:42:03;2.80;;;1.40;;
3589;SDS011;1809;48.470;9.226;2023-04-25T09:44:29;2.17;;;1.50;;
3589;SDS011;1809;48.470;9.226;2023-04-25T09:46:55;1.50;;;1.40;;
3589;SDS011;1809;48.470;9.226;2023-04-25T09:49:20;2.60;;;1.93;;
3589;SDS011;1809;48.470;9.226;2023-04-25T09:51:58;2.17;;;2.07;;
3589;SDS011;1809;48.470;9.226;2023-04-25T09:54:25;2.60;;;2.40;;
3589;SDS011;1809;48.470;9.226;2023-04-25T09:56:51;1.83;;;1.73;;
3589;SDS011;1809;48.470;9.226;2023-04-25T09:59:19;1.17;;;1.07;;
3589;SDS011;1809;48.470;9.226;2023-04-25T10:01:46;1.30;;;1.30;;
3589;SDS011;1809;48.470;9.226;2023-04-25T10:04:16;1.23;;;1.13;;
3589;SDS011;1809;48.470;9.226;2023-04-25T10:06:45;6.40;;;1.47;;
3589;SDS011;1809;48.470;9.226;2023-04-25T10:09:14;0.80;;;0.80;;
3589;SDS011;1809;48.470;9.226;2023-04-25T10:11:40;0.83;;;0.80;;
3589;SDS011;1809;48.470;9.226;2023-04-25T10:14:06;1.57;;;0.90;;
3589;SDS011;1809;48.470;9.226;2023-04-25T10:16:31;1.93;;;1.83;;
3589;SDS011;1809;48.470;9.226;2023-04-25T10:18:57;1.10;;;1.10;;
3589;SDS011;1809;48.470;9.226;2023-04-25T10:21:23;1.27;;;0.93;;
3589;SDS011;1809;48.470;9.226;2023-04-25T10:23:51;1.23;;;1.23;;
3589;SDS011;1809;48.470;9.226;2023-04-25T10:26:18;0.90;;;0.90;;
3589;SDS011;1809;48.470;9.226;2023-04-25T10:31:22;1.30;;;1.20;;
3589;SDS011;1809;48.470;9.226;2023-04-25T10:33:48;1.23;;;1.13;;
3589;SDS011;1809;48.470;9.226;2023-04-25T10:36:23;1.87;;;1.77;;
3589;SDS011;1809;48.470;9.226;2023-04-25T10:38:52;1.80;;;1.70;;
3589;SDS011;1809;48.470;9.226;2023-04-25T10:41:21;1.43;;;1.33;;
3589;SDS011;1809;48.470;9.226;2023-04-25T10:43:48;9.10;;;1.37;;
3589;SDS011;1809;48.470;9.226;2023-04-25T10:46:22;1.00;;;1.00;;
3589;SDS011;1809;48.470;9.226;2023-04-25T10:48:49;1.10;;;1.10;;
3589;SDS011;1809;48.470;9.226;2023-04-25T10:51:17;1.40;;;1.10;;
3589;SDS011;1809;48.470;9.226;2023-04-25T10:53:48;1.20;;;1.10;;
3589;SDS011;1809;48.470;9.226;2023-04-25T10:56:21;1.33;;;1.20;;
3589;SDS011;1809;48.470;9.226;2023-04-25T10:58:49;0.90;;;0.80;;
3589;SDS011;1809;48.470;9.226;2023-04-25T11:01:15;1.60;;;1.40;;
3589;SDS011;1809;48.470;9.226;2023-04-25T11:03:45;1.70;;;1.60;;
3589;SDS011;1809;48.470;9.226;2023-04-25T11:06:18;3.60;;;1.60;;
3589;SDS011;1809;48.470;9.226;2023-04-25T11:08:48;1.70;;;1.10;;
3589;SDS011;1809;48.470;9.226;2023-04-25T11:11:18;1.83;;;1.17;;
3589;SDS011;1809;48.470;9.226;2023-04-25T11:13:44;0.80;;;0.80;;
3589;SDS011;1809;48.470;9.226;2023-04-25T11:16:12;1.73;;;0.83;;
3589;SDS011;1809;48.470;9.226;2023-04-25T11:18:40;1.17;;;1.17;;
3589;SDS011;1809;48.470;9.226;2023-04-25T11:21:06;1.83;;;1.73;;
3589;SDS011;1809;48.470;9.226;2023-04-25T11:23:31;0.80;;;0.80;;
3589;SDS011;1809;48.470;9.226;2023-04-25T11:25:57;0.70;;;0.70;;
3589;SDS011;1809;48.470;9.226;2023-04-25T11:28:22;0.67;;;0.67;;
3589;SDS011;1809;48.470;9.226;2023-04-25T11:30:51;0.60;;;0.60;;
3589;SDS011;1809;48.470;9.226;2023-04-25T11:33:16;0.80;;;0.80;;
3589;SDS011;1809;48.470;9.226;2023-04-25T11:35:42;1.20;;;1.10;;
3589;SDS011;1809;48.470;9.226;2023-04-25T11:38:07;0.50;;;0.50;;
3589;SDS011;1809;48.470;9.226;2023-04-25T11:40:33;0.50;;;0.50;;
3589;SDS011;1809;48.470;9.226;2023-04-25T11:43:00;0.70;;;0.60;;
3589;SDS011;1809;48.470;9.226;2023-04-25T11:45:26;0.80;;;0.60;;
3589;SDS011;1809;48.470;9.226;2023-04-25T11:47:51;0.90;;;0.90;;
3589;SDS011;1809;48.470;9.226;2023-04-25T11:50:17;0.60;;;0.60;;
3589;SDS011;1809;48.470;9.226;2023-04-25T11:52:43;0.80;;;0.80;;
3589;SDS011;1809;48.470;9.226;2023-04-25T11:55:15;0.50;;;0.40;;
3589;SDS011;1809;48.470;9.226;2023-04-25T11:57:43;0.80;;;0.60;;
3589;SDS011;1809;48.470;9.226;2023-04-25T12:00:16;0.60;;;0.60;;
3589;SDS011;1809;48.470;9.226;2023-04-25T12:02:54;0.50;;;0.50;;
3589;SDS011;1809;48.470;9.226;2023-04-25T12:05:23;0.90;;;0.90;;
3589;SDS011;1809;48.470;9.226;2023-04-25T12:07:50;1.50;;;0.97;;
3589;SDS011;1809;48.470;9.226;2023-04-25T12:10:16;0.70;;;0.70;;
3589;SDS011;1809;48.470;9.226;2023-04-25T12:12:44;0.50;;;0.50;;
3589;SDS011;1809;48.470;9.226;2023-04-25T12:15:25;0.90;;;0.90;;
3589;SDS011;1809;48.470;9.226;2023-04-25T12:17:52;0.80;;;0.80;;
3589;SDS011;1809;48.470;9.226;2023-04-25T12:20:19;0.70;;;0.70;;
3589;SDS011;1809;48.470;9.226;2023-04-25T12:22:48;0.50;;;0.50;;
3589;SDS011;1809;48.470;9.226;2023-04-25T12:28:13;0.60;;;0.60;;
3589;SDS011;1809;48.470;9.226;2023-04-25T12:31:04;1.33;;;0.80;;
3589;SDS011;1809;48.470;9.226;2023-04-25T12:33:31;1.53;;;0.90;;
3589;SDS011;1809;48.470;9.226;2023-04-25T12:36:01;0.50;;;0.50;;
3589;SDS011;1809;48.470;9.226;2023-04-25T12:38:37;0.70;;;0.70;;
3589;SDS011;1809;48.470;9.226;2023-04-25T12:41:03;1.83;;;1.73;;
3589;SDS011;1809;48.470;9.226;2023-04-25T12:43:29;2.90;;;1.37;;
3589;SDS011;1809;48.470;9.226;2023-04-25T12:45:55;1.03;;;1.03;;
3589;SDS011;1809;48.470;9.226;2023-04-25T12:48:21;1.10;;;1.10;;
3589;SDS011;1809;48.470;9.226;2023-04-25T12:50:47;1.77;;;1.67;;
3589;SDS011;1809;48.470;9.226;2023-04-25T12:53:14;1.27;;;1.17;;
3589;SDS011;1809;48.470;9.226;2023-04-25T12:55:46;0.80;;;0.80;;
3589;SDS011;1809;48.470;9.226;2023-04-25T12:58:12;1.23;;;1.23;;
3589;SDS011;1809;48.470;9.226;2023-04-25T13:00:42;1.00;;;1.00;;
3589;SDS011;1809;48.470;9.226;2023-04-25T13:03:08;1.93;;;1.63;;
3589;SDS011;1809;48.470;9.226;2023-04-25T13:05:34;0.90;;;0.90;;
3589;SDS011;1809;48.470;9.226;2023-04-25T13:07:59;0.90;;;0.90;;
3589;SDS011;1809;48.470;9.226;2023-04-25T13:10:25;0.73;;;0.73;;
3589;SDS011;1809;48.470;9.226;2023-04-25T13:12:50;1.00;;;1.00;;
3589;SDS011;1809;48.470;9.226;2023-04-25T13:15:16;0.90;;;0.90;;
3589;SDS011;1809;48.470;9.226;2023-04-25T13:17:41;1.23;;;0.80;;
3589;SDS011;1809;48.470;9.226;2023-04-25T13:20:07;0.80;;;0.80;;
3589;SDS011;1809;48.470;9.226;2023-04-25T13:22:34;4.53;;;1.60;;
3589;SDS011;1809;48.470;9.226;2023-04-25T13:25:04;6.30;;;3.57;;
3589;SDS011;1809;48.470;9.226;2023-04-25T13:27:30;1.90;;;1.80;;
3589;SDS011;1809;48.470;9.226;2023-04-25T13:29:57;2.00;;;0.90;;
3589;SDS011;1809;48.470;9.226;2023-04-25T13:32:23;1.97;;;1.30;;
3589;SDS011;1809;48.470;9.226;2023-04-25T13:34:48;0.93;;;0.93;;
3589;SDS011;1809;48.470;9.226;2023-04-25T13:37:14;2.30;;;1.50;;
3589;SDS011;1809;48.470;9.226;2023-04-25T13:39:39;1.20;;;1.10;;
3589;SDS011;1809;48.470;9.226;2023-04-25T13:42:05;1.70;;;1.60;;
3589;SDS011;1809;48.470;9.226;2023-04-25T13:44:31;1.70;;;1.60;;
3589;SDS011;1809;48.470;9.226;2023-04-25T13:46:56;1.43;;;1.33;;
3589;SDS011;1809;48.470;9.226;2023-04-25T13:49:21;2.27;;;2.17;;
3589;SDS011;1809;48.470;9.226;2023-04-25T13:51:47;1.50;;;1.50;;
3589;SDS011;1809;48.470;9.226;2023-04-25T13:54:13;2.40;;;1.80;;
3589;SDS011;1809;48.470;9.226;2023-04-25T13:56:38;2.10;;;2.00;;
3589;SDS011;1809;48.470;9.226;2023-04-25T13:59:06;2.27;;;2.13;;
3589;SDS011;1809;48.470;9.226;2023-04-25T14:01:32;2.17;;;2.07;;
3589;SDS011;1809;48.470;9.226;2023-04-25T14:03:59;2.17;;;2.07;;
3589;SDS011;1809;48.470;9.226;2023-04-25T14:06:24;2.60;;;2.50;;
3589;SDS011;1809;48.470;9.226;2023-04-25T14:08:50;2.43;;;2.33;;
3589;SDS011;1809;48.470;9.226;2023-04-25T14:11:16;3.20;;;2.40;;
3589;SDS011;1809;48.470;9.226;2023-04-25T14:13:43;2.93;;;2.47;;
3589;SDS011;1809;48.470;9.226;2023-04-25T14:16:09;2.37;;;2.27;;
3589;SDS011;1809;48.470;9.226;2023-04-25T14:18:34;3.30;;;3.10;;
3589;SDS011;1809;48.470;9.226;2023-04-25T14:21:00;2.70;;;2.60;;
3589;SDS011;1809;48.470;9.226;2023-04-25T14:23:25;2.53;;;2.43;;
3589;SDS011;1809;48.470;9.226;2023-04-25T14:25:51;3.27;;;3.07;;
3589;SDS011;1809;48.470;9.226;2023-04-25T14:28:16;2.83;;;2.70;;
3589;SDS011;1809;48.470;9.226;2023-04-25T14:30:41;2.93;;;2.80;;
3589;SDS011;1809;48.470;9.226;2023-04-25T14:33:07;3.00;;;2.77;;
3589;SDS011;1809;48.470;9.226;2023-04-25T14:35:32;4.17;;;3.20;;
3589;SDS011;1809;48.470;9.226;2023-04-25T14:37:57;6.60;;;3.40;;
3589;SDS011;1809;48.470;9.226;2023-04-25T14:40:23;2.63;;;2.53;;
3589;SDS011;1809;48.470;9.226;2023-04-25T14:42:48;4.13;;;2.90;;
3589;SDS011;1809;48.470;9.226;2023-04-25T14:45:15;3.13;;;2.87;;
3589;SDS011;1809;48.470;9.226;2023-04-25T14:47:40;3.67;;;3.30;;
3589;SDS011;1809;48.470;9.226;2023-04-25T14:50:06;3.13;;;2.97;;
3589;SDS011;1809;48.470;9.226;2023-04-25T14:52:32;4.27;;;2.80;;
3589;SDS011;1809;48.470;9.226;2023-04-25T14:54:57;3.43;;;3.13;;
3589;SDS011;1809;48.470;9.226;2023-04-25T14:57:24;2.73;;;2.63;;
3589;SDS011;1809;48.470;9.226;2023-04-25T14:59:51;10.20;;;3.73;;
3589;SDS011;1809;48.470;9.226;2023-04-25T15:02:16;4.10;;;3.80;;
3589;SDS011;1809;48.470;9.226;2023-04-25T15:04:41;3.90;;;3.67;;
3589;SDS011;1809;48.470;9.226;2023-04-25T15:07:07;4.47;;;4.07;;
3589;SDS011;1809;48.470;9.226;2023-04-25T15:09:32;4.20;;;3.80;;
3589;SDS011;1809;48.470;9.226;2023-04-25T15:11:57;5.80;;;3.80;;
3589;SDS011;1809;48.470;9.226;2023-04-25T15:14:23;4.33;;;3.97;;
3589;SDS011;1809;48.470;9.226;2023-04-25T15:16:48;7.43;;;3.40;;
3589;SDS011;1809;48.470;9.226;2023-04-25T15:19:14;3.90;;;3.70;;
3589;SDS011;1809;48.470;9.226;2023-04-25T15:21:39;10.73;;;4.90;;